createdAt,value
2022-10-19T00:00:00.000Z,85.19
2022-10-19T00:15:00.000Z,85.48
2022-10-19T00:30:00.000Z,85.52
2022-10-19T00:45:00.000Z,85.64
2022-10-19T01:00:00.000Z,85.76
2022-10-19T01:15:00.000Z,85.91
2022-10-19T01:30:00.000Z,85.96
2022-10-19T01:45:00.000Z,86.3
2022-10-19T02:15:00.000Z,86.13
2022-10-19T02:15:00.000Z,86.19
2022-10-19T02:45:00.000Z,86.21
2022-10-19T02:45:00.000Z,86.04
2022-10-19T03:00:00.000Z,85.87
2022-10-19T03:15:00.000Z,85.9
2022-10-19T03:30:00.000Z,86.03
2022-10-19T03:45:00.000Z,86.1
2022-10-19T04:00:00.000Z,86.51
2022-10-19T04:15:00.000Z,86.42
2022-10-19T04:30:00.000Z,86.61
2022-10-19T04:45:00.000Z,86.61
2022-10-19T05:00:00.000Z,86.71
2022-10-19T05:15:00.000Z,86.5
2022-10-19T05:30:00.000Z,86.4
2022-10-19T05:45:00.000Z,86.04
2022-10-19T06:00:00.000Z,86.08
2022-10-19T06:15:00.000Z,85.52
2022-10-19T06:30:00.000Z,83.88
2022-10-19T06:45:00.000Z,83.06
2022-10-19T07:00:00.000Z,82.42
2022-10-19T07:15:00.000Z,82.47
2022-10-19T07:30:00.000Z,81.91
2022-10-19T07:45:00.000Z,82.03
2022-10-19T08:00:00.000Z,82.8
2022-10-19T08:15:00.000Z,81.34
2022-10-19T08:30:00.000Z,79.36
2022-10-19T08:45:00.000Z,77.24
2022-10-19T09:00:00.000Z,76.21
2022-10-19T09:15:00.000Z,75.67
2022-10-19T09:30:00.000Z,75.87
2022-10-19T09:45:00.000Z,77.68
2022-10-19T10:00:00.000Z,76.31
2022-10-19T10:15:00.000Z,73.31
2022-10-19T10:30:00.000Z,74.19
2022-10-19T10:45:00.000Z,73.41
2022-10-19T11:00:00.000Z,71.06
2022-10-19T11:15:00.000Z,71.33
2022-10-19T11:30:00.000Z,72.49
2022-10-19T11:45:00.000Z,72.67
2022-10-19T12:00:00.000Z,69.98
2022-10-19T12:15:00.000Z,66.11
2022-10-19T12:30:00.000Z,65.34
2022-10-19T12:45:00.000Z,66.77
2022-10-19T13:00:00.000Z,66.63
2022-10-19T13:15:00.000Z,68.86
2022-10-19T13:30:00.000Z,68.17
2022-10-19T13:45:00.000Z,68.31
2022-10-19T14:00:00.000Z,68.95
2022-10-19T14:15:00.000Z,69.31
2022-10-19T14:30:00.000Z,69.07
2022-10-19T14:45:00.000Z,69.94
2022-10-19T15:00:00.000Z,69.93
2022-10-19T15:15:00.000Z,70.07
2022-10-19T15:30:00.000Z,71.3
2022-10-19T15:45:00.000Z,72.19
2022-10-19T16:00:00.000Z,72.44
2022-10-19T16:15:00.000Z,72.79
2022-10-19T16:30:00.000Z,73.53
2022-10-19T16:45:00.000Z,73.67
2022-10-19T17:00:00.000Z,74.35
2022-10-19T17:15:00.000Z,74.52
2022-10-19T17:30:00.000Z,75.21
2022-10-19T17:45:00.000Z,76.33
2022-10-19T18:00:00.000Z,77.86
2022-10-19T18:15:00.000Z,79.57
2022-10-19T18:30:00.000Z,81.04
2022-10-19T18:45:00.000Z,81.77
2022-10-19T19:00:00.000Z,82.36
2022-10-19T19:15:00.000Z,83.28
2022-10-19T19:30:00.000Z,83.89
2022-10-19T19:45:00.000Z,84.13
2022-10-19T20:00:00.000Z,84.14
2022-10-19T20:15:00.000Z,84.27
2022-10-19T20:30:00.000Z,84.5
2022-10-19T20:45:00.000Z,84.66
2022-10-19T21:00:00.000Z,84.35
2022-10-19T21:15:00.000Z,84.68
2022-10-19T21:30:00.000Z,84.66
2022-10-19T21:45:00.000Z,85.05
2022-10-19T22:00:00.000Z,85.13
2022-10-19T22:15:00.000Z,85.18
2022-10-19T22:30:00.000Z,85.05
2022-10-19T22:45:00.000Z,84.03
2022-10-19T23:00:00.000Z,83.47
2022-10-19T23:15:00.000Z,83.36
2022-10-19T23:30:00.000Z,83.36
2022-10-19T23:45:00.000Z,83.05
